createdAt,value
2022-10-15T00:03:00.555Z,32.80
2022-10-15T00:06:07.969Z,32.70
2022-10-15T00:09:12.231Z,32.70
2022-10-15T00:12:14.081Z,32.60
2022-10-15T00:15:16.627Z,32.50
2022-10-15T00:18:18.462Z,32.50
2022-10-15T00:21:21.486Z,32.40
2022-10-15T00:24:23.329Z,32.30
2022-10-15T00:27:25.495Z,32.30
2022-10-15T00:30:27.486Z,32.10
2022-10-15T00:33:29.572Z,32.10
2022-10-15T00:36:34.545Z,32.10
2022-10-15T00:39:37.631Z,32.10
2022-10-15T00:42:39.467Z,32.10
2022-10-15T00:45:41.591Z,32.10
2022-10-15T00:48:44.618Z,32.10
2022-10-15T00:51:54.363Z,32.00
2022-10-15T00:55:02.156Z,32.00
2022-10-15T00:58:19.922Z,32.00
2022-10-15T01:01:22.195Z,32.00
2022-10-15T01:04:25.038Z,32.10
2022-10-15T01:07:27.021Z,32.10
2022-10-15T01:10:40.546Z,32.10
2022-10-15T01:14:04.663Z,32.20
2022-10-15T01:17:27.831Z,32.30
2022-10-15T01:20:47.724Z,32.30
2022-10-15T01:24:11.278Z,32.30
2022-10-15T01:27:36.102Z,32.30
2022-10-15T01:30:47.330Z,32.40
2022-10-15T01:34:02.528Z,32.40
2022-10-15T01:37:19.257Z,32.30
2022-10-15T01:40:32.189Z,32.30
2022-10-15T01:43:40.348Z,32.30
2022-10-15T01:47:03.904Z,32.30
2022-10-15T01:50:08.771Z,32.20
2022-10-15T01:53:15.992Z,32.30
2022-10-15T01:56:23.197Z,32.20
2022-10-15T01:59:29.826Z,32.20
2022-10-15T02:02:31.933Z,32.20
2022-10-15T02:05:40.966Z,32.20
2022-10-15T02:08:50.255Z,32.20
2022-10-15T02:12:28.846Z,32.10
2022-10-15T02:15:52.674Z,32.00
2022-10-15T02:19:15.091Z,32.00
2022-10-15T02:22:19.701Z,31.90
2022-10-15T02:25:24.545Z,31.90
2022-10-15T02:28:28.637Z,31.80
2022-10-15T02:31:33.384Z,31.80
2022-10-15T02:34:36.460Z,31.80
2022-10-15T02:37:41.592Z,31.80
2022-10-15T02:40:44.474Z,31.80
2022-10-15T02:43:48.114Z,31.80
2022-10-15T02:46:50.370Z,31.80
2022-10-15T02:49:52.268Z,31.80
2022-10-15T02:52:54.346Z,31.80
2022-10-15T02:55:56.223Z,31.90
2022-10-15T02:58:58.394Z,32.00
2022-10-15T03:02:00.268Z,32.00
2022-10-15T03:05:02.433Z,32.10
2022-10-15T03:08:04.381Z,32.10
2022-10-15T03:11:06.474Z,32.10
2022-10-15T03:14:08.396Z,32.10
2022-10-15T03:17:10.480Z,32.10
2022-10-15T03:20:12.315Z,32.10
2022-10-15T03:23:14.390Z,32.30
2022-10-15T03:26:16.239Z,32.30
2022-10-15T03:29:18.389Z,32.30
2022-10-15T03:32:20.585Z,32.30
2022-10-15T03:35:22.632Z,32.30
2022-10-15T03:38:24.523Z,32.20
2022-10-15T03:41:26.679Z,32.20
2022-10-15T03:44:28.656Z,32.10
2022-10-15T03:47:30.833Z,32.20
2022-10-15T03:50:32.960Z,32.20
2022-10-15T03:53:35.083Z,32.30
2022-10-15T03:56:37.436Z,32.30
2022-10-15T03:59:39.590Z,32.40
2022-10-15T04:02:41.648Z,32.50
2022-10-15T04:05:54.246Z,32.40
2022-10-15T04:08:57.230Z,32.40
2022-10-15T04:11:59.349Z,32.50
2022-10-15T04:15:01.386Z,32.50
2022-10-15T04:18:03.721Z,32.50
2022-10-15T04:21:05.643Z,32.50
2022-10-15T04:24:09.490Z,32.60
2022-10-15T04:30:15.185Z,32.60
2022-10-15T04:33:17.125Z,32.70
2022-10-15T04:36:19.178Z,32.60
2022-10-15T04:39:21.501Z,32.70
2022-10-15T04:42:23.598Z,32.60
2022-10-15T04:45:25.495Z,32.60
2022-10-15T04:48:32.967Z,32.70
2022-10-15T04:51:34.825Z,32.70
2022-10-15T04:54:37.071Z,32.80
2022-10-15T04:57:39.248Z,32.80
2022-10-15T05:00:41.408Z,32.80
2022-10-15T05:03:45.386Z,32.80
2022-10-15T05:06:47.718Z,32.70
2022-10-15T05:09:49.684Z,32.60
2022-10-15T05:12:54.289Z,32.80
2022-10-15T05:16:12.742Z,32.90
2022-10-15T05:19:16.812Z,33.00
2022-10-15T05:22:18.659Z,33.00
2022-10-15T05:25:21.001Z,33.10
2022-10-15T05:28:22.911Z,32.90
2022-10-15T05:31:28.151Z,33.00
2022-10-15T05:34:30.722Z,33.00
2022-10-15T05:37:32.936Z,33.00
2022-10-15T05:40:38.626Z,32.90
2022-10-15T05:43:41.696Z,33.00
2022-10-15T05:46:43.689Z,33.00
2022-10-15T05:49:45.868Z,33.00
2022-10-15T05:52:47.931Z,33.00
2022-10-15T05:55:53.357Z,32.90
2022-10-15T05:58:55.720Z,33.00
2022-10-15T06:01:57.914Z,33.10
2022-10-15T06:05:00.189Z,33.20
2022-10-15T06:08:02.307Z,33.30
2022-10-15T06:11:08.379Z,33.40
2022-10-15T06:14:11.807Z,33.40
2022-10-15T06:17:13.719Z,33.50
2022-10-15T06:20:15.989Z,33.30
2022-10-15T06:23:17.920Z,33.50
2022-10-15T06:26:20.055Z,33.50
2022-10-15T06:29:21.986Z,33.60
2022-10-15T06:32:24.096Z,33.50
2022-10-15T06:35:27.068Z,33.50
2022-10-15T06:38:29.336Z,33.60
2022-10-15T06:41:31.647Z,33.60
2022-10-15T06:44:33.780Z,33.60
2022-10-15T06:47:35.921Z,33.70
2022-10-15T06:50:39.234Z,33.70
2022-10-15T06:53:42.323Z,33.70
2022-10-15T06:56:44.397Z,33.80
2022-10-15T06:59:46.302Z,33.70
2022-10-15T07:02:48.408Z,33.60
2022-10-15T07:05:50.547Z,33.80
2022-10-15T07:08:52.948Z,33.90
2022-10-15T07:11:55.046Z,33.90
2022-10-15T07:14:57.193Z,34.00
2022-10-15T07:18:01.733Z,34.10
2022-10-15T07:21:05.990Z,33.90
2022-10-15T07:24:08.058Z,34.10
2022-10-15T07:27:18.809Z,34.20
2022-10-15T07:30:21.959Z,34.20
2022-10-15T07:33:24.053Z,34.30
2022-10-15T07:36:26.977Z,34.40
2022-10-15T07:39:29.387Z,34.30
2022-10-15T07:42:31.235Z,34.40
2022-10-15T07:45:33.425Z,34.50
2022-10-15T07:48:35.349Z,34.50
2022-10-15T07:51:37.581Z,34.50
2022-10-15T07:54:39.582Z,34.30
2022-10-15T07:57:41.682Z,34.30
2022-10-15T08:00:43.803Z,34.40
2022-10-15T08:03:46.103Z,34.50
2022-10-15T08:06:49.714Z,34.50
2022-10-15T08:09:52.088Z,34.50
2022-10-15T08:12:54.037Z,34.50
2022-10-15T08:16:00.122Z,34.40
2022-10-15T08:19:02.546Z,34.60
2022-10-15T08:22:05.729Z,34.90
2022-10-15T08:25:08.507Z,35.00
2022-10-15T08:28:10.875Z,34.90
2022-10-15T08:31:13.860Z,35.00
2022-10-15T08:34:15.882Z,35.20
2022-10-15T08:37:18.215Z,35.20
2022-10-15T08:40:22.325Z,35.30
2022-10-15T08:43:37.988Z,35.50
2022-10-15T08:46:46.416Z,35.40
2022-10-15T08:49:57.251Z,35.40
2022-10-15T08:52:59.985Z,35.60
2022-10-15T08:56:12.294Z,35.60
2022-10-15T08:59:16.965Z,35.50
2022-10-15T09:02:32.962Z,35.60
2022-10-15T09:05:50.733Z,35.60
2022-10-15T09:09:12.934Z,35.60
2022-10-15T09:12:43.425Z,35.60
2022-10-15T09:15:54.685Z,35.70
2022-10-15T09:19:00.652Z,35.70
2022-10-15T09:22:03.256Z,35.80
2022-10-15T09:25:22.153Z,35.70
2022-10-15T09:28:29.914Z,36.00
2022-10-15T09:31:43.783Z,36.10
2022-10-15T09:34:56.595Z,36.00
2022-10-15T09:38:05.965Z,36.20
2022-10-15T09:41:25.264Z,36.40
2022-10-15T09:44:33.855Z,36.60
2022-10-15T09:47:36.816Z,36.60
2022-10-15T09:50:47.455Z,36.50
2022-10-15T09:54:09.979Z,36.40
2022-10-15T09:57:15.869Z,36.50
2022-10-15T10:00:18.316Z,36.50
2022-10-15T10:03:23.142Z,36.50
2022-10-15T10:06:25.243Z,36.70
2022-10-15T10:09:34.781Z,36.60
2022-10-15T10:12:37.856Z,36.80
2022-10-15T10:15:42.931Z,36.80
2022-10-15T10:19:06.170Z,36.60
2022-10-15T10:22:20.975Z,36.70
2022-10-15T10:25:28.692Z,36.80
2022-10-15T10:28:56.548Z,36.80
2022-10-15T10:32:20.452Z,36.90
2022-10-15T10:35:24.875Z,37.10
2022-10-15T10:38:34.507Z,37.00
2022-10-15T10:41:49.645Z,37.20
2022-10-15T10:44:53.049Z,37.20
2022-10-15T10:47:55.211Z,37.30
2022-10-15T10:51:09.178Z,37.00
2022-10-15T10:54:14.672Z,37.10
2022-10-15T10:57:21.827Z,37.00
2022-10-15T11:00:44.711Z,36.90
2022-10-15T11:03:50.513Z,37.00
2022-10-15T11:07:18.427Z,36.90
2022-10-15T11:10:52.525Z,36.90
2022-10-15T11:14:21.957Z,36.80
2022-10-15T11:17:30.508Z,36.70
2022-10-15T11:21:06.774Z,36.70
2022-10-15T11:24:48.309Z,36.70
2022-10-15T11:28:15.053Z,36.60
2022-10-15T11:35:24.074Z,36.50
2022-10-15T11:38:51.641Z,36.60
2022-10-15T11:42:15.679Z,36.80
2022-10-15T11:45:39.615Z,36.90
2022-10-15T11:49:11.674Z,37.00
2022-10-15T11:52:24.363Z,37.00
2022-10-15T11:55:37.727Z,37.10
2022-10-15T11:58:48.069Z,37.10
2022-10-15T12:01:54.949Z,37.20
2022-10-15T12:05:01.910Z,37.10
2022-10-15T12:11:25.135Z,37.20
2022-10-15T12:14:38.754Z,37.40
2022-10-15T12:18:03.929Z,37.20
2022-10-15T12:21:39.060Z,37.20
2022-10-15T12:24:51.778Z,37.30
2022-10-15T12:28:05.875Z,37.40
2022-10-15T12:31:08.316Z,37.50
2022-10-15T12:34:39.391Z,37.40
2022-10-15T12:37:44.096Z,37.30
2022-10-15T12:40:46.982Z,37.10
2022-10-15T12:44:04.925Z,37.00
2022-10-15T12:47:10.358Z,36.80
2022-10-15T12:50:24.621Z,36.50
2022-10-15T12:53:28.737Z,36.40
2022-10-15T12:56:40.618Z,36.40
2022-10-15T12:59:45.290Z,36.70
2022-10-15T13:02:48.319Z,36.80
2022-10-15T13:05:53.281Z,36.90
2022-10-15T13:09:17.250Z,36.80
2022-10-15T13:12:25.368Z,36.70
2022-10-15T13:15:29.646Z,36.60
2022-10-15T13:18:31.902Z,36.80
2022-10-15T13:21:54.869Z,36.20
2022-10-15T13:24:57.117Z,36.30
2022-10-15T13:27:59.142Z,36.50
2022-10-15T13:31:05.475Z,36.60
2022-10-15T13:34:26.749Z,36.70
2022-10-15T13:37:32.594Z,36.80
2022-10-15T13:40:35.186Z,36.40
2022-10-15T13:43:37.202Z,36.50
2022-10-15T13:46:39.674Z,36.50
2022-10-15T13:49:41.580Z,36.60
2022-10-15T13:52:57.846Z,36.60
2022-10-15T13:56:02.799Z,36.60
2022-10-15T13:59:05.233Z,36.30
2022-10-15T14:02:12.127Z,36.20
2022-10-15T14:05:17.405Z,36.00
2022-10-15T14:08:25.251Z,36.10
2022-10-15T14:11:29.105Z,35.80
2022-10-15T14:14:31.002Z,36.00
2022-10-15T14:17:33.236Z,36.40
2022-10-15T14:20:35.154Z,36.50
2022-10-15T14:23:37.511Z,36.40
2022-10-15T14:26:39.715Z,36.30
2022-10-15T14:29:43.444Z,36.20
2022-10-15T14:32:47.677Z,36.40
2022-10-15T14:36:12.036Z,36.40
2022-10-15T14:39:35.891Z,36.50
2022-10-15T14:42:47.841Z,36.60
2022-10-15T14:45:52.491Z,36.70
2022-10-15T14:48:54.629Z,36.80
2022-10-15T14:52:07.055Z,36.90
2022-10-15T14:55:28.620Z,36.90
2022-10-15T14:58:30.810Z,36.90
2022-10-15T15:01:35.454Z,36.80
2022-10-15T15:04:41.999Z,36.80
2022-10-15T15:07:44.177Z,36.80
2022-10-15T15:13:51.631Z,36.70
2022-10-15T15:16:53.609Z,36.70
2022-10-15T15:19:57.668Z,36.60
2022-10-15T15:22:59.805Z,36.50
2022-10-15T15:26:02.824Z,36.60
2022-10-15T15:29:13.905Z,36.60
2022-10-15T15:32:16.462Z,36.50
2022-10-15T15:35:33.821Z,36.50
2022-10-15T15:41:42.808Z,36.40
2022-10-15T15:44:45.418Z,36.30
2022-10-15T15:47:47.708Z,36.30
2022-10-15T15:50:49.829Z,36.30
2022-10-15T15:53:52.073Z,36.30
2022-10-15T15:56:54.375Z,36.30
2022-10-15T16:14:20.088Z,35.20
2022-10-15T16:17:24.356Z,34.00
2022-10-15T16:20:29.545Z,34.30
2022-10-15T16:23:31.729Z,34.20
2022-10-15T16:26:33.701Z,34.70
2022-10-15T16:29:35.991Z,35.00
2022-10-15T16:32:37.912Z,35.10
2022-10-15T16:35:40.079Z,35.30
2022-10-15T16:38:43.385Z,35.50
2022-10-15T16:41:45.518Z,35.50
2022-10-15T16:44:47.493Z,35.60
2022-10-15T16:47:49.641Z,35.70
2022-10-15T16:51:06.891Z,35.70
2022-10-15T16:54:15.564Z,35.70
2022-10-15T16:57:17.605Z,35.80
2022-10-15T17:00:19.791Z,35.80
2022-10-15T17:03:21.712Z,35.80
2022-10-15T17:06:26.197Z,35.80
2022-10-15T17:09:28.109Z,35.80
2022-10-15T17:12:30.180Z,35.70
2022-10-15T17:15:32.090Z,35.50
2022-10-15T17:18:34.166Z,35.50
2022-10-15T17:21:36.396Z,35.30
2022-10-15T17:24:38.447Z,35.10
2022-10-15T17:27:40.640Z,35.00
2022-10-15T17:30:42.699Z,35.10
2022-10-15T17:33:45.300Z,35.20
2022-10-15T17:36:48.959Z,35.20
2022-10-15T17:39:52.782Z,35.10
2022-10-15T17:42:55.851Z,35.00
2022-10-15T17:46:02.231Z,35.10
2022-10-15T17:49:04.605Z,35.10
2022-10-15T17:52:06.861Z,35.10
2022-10-15T17:55:09.269Z,35.10
2022-10-15T17:58:11.218Z,35.10
2022-10-15T18:01:33.729Z,34.90
2022-10-15T18:04:47.283Z,34.70
2022-10-15T18:07:49.492Z,34.90
2022-10-15T18:10:53.412Z,34.70
2022-10-15T18:13:55.683Z,34.90
2022-10-15T18:17:01.114Z,34.80
2022-10-15T18:20:04.000Z,34.80
2022-10-15T18:23:06.163Z,34.60
2022-10-15T18:26:18.606Z,34.60
2022-10-15T18:29:22.742Z,34.70
2022-10-15T18:32:26.962Z,34.80
2022-10-15T18:35:29.303Z,34.90
2022-10-15T18:38:31.372Z,35.00
2022-10-15T18:41:35.741Z,35.10
2022-10-15T18:44:40.865Z,35.20
2022-10-15T18:47:43.423Z,35.20
2022-10-15T18:53:48.752Z,35.10
2022-10-15T18:56:52.638Z,35.10
2022-10-15T18:59:54.643Z,35.10
2022-10-15T19:02:57.258Z,35.10
2022-10-15T19:05:59.145Z,35.10
2022-10-15T19:09:06.121Z,35.00
2022-10-15T19:12:08.048Z,35.10
2022-10-15T19:15:11.174Z,35.00
2022-10-15T19:18:15.980Z,34.90
2022-10-15T19:21:19.545Z,34.90
2022-10-15T19:24:22.527Z,35.00
2022-10-15T19:27:25.036Z,35.10
2022-10-15T19:30:28.298Z,35.20
2022-10-15T19:33:31.386Z,35.20
2022-10-15T19:36:35.838Z,35.20
2022-10-15T19:39:41.176Z,35.20
2022-10-15T19:42:43.059Z,35.10
2022-10-15T19:45:48.695Z,35.20
2022-10-15T19:48:50.526Z,35.20
2022-10-15T19:51:52.829Z,35.20
2022-10-15T19:54:54.827Z,35.10
2022-10-15T19:57:56.927Z,35.10
2022-10-15T20:00:58.999Z,35.10
2022-10-15T20:04:06.317Z,35.10
2022-10-15T20:07:08.844Z,35.10
2022-10-15T20:10:12.344Z,35.10
2022-10-15T20:13:16.209Z,35.10
2022-10-15T20:16:20.913Z,35.10
2022-10-15T20:19:25.065Z,35.00
2022-10-15T20:22:28.628Z,34.90
2022-10-15T20:25:30.868Z,34.90
2022-10-15T20:28:36.847Z,34.80
2022-10-15T20:31:38.841Z,34.70
2022-10-15T20:34:40.946Z,34.60
2022-10-15T20:37:42.792Z,34.60
2022-10-15T20:40:44.966Z,34.60
2022-10-15T20:43:51.806Z,34.50
2022-10-15T20:46:58.761Z,34.50
2022-10-15T20:50:02.018Z,34.40
2022-10-15T20:53:04.104Z,34.40
2022-10-15T20:56:06.618Z,34.30
2022-10-15T20:59:08.995Z,34.20
2022-10-15T21:02:10.934Z,34.20
2022-10-15T21:05:13.348Z,34.30
2022-10-15T21:08:15.312Z,34.20
2022-10-15T21:11:17.424Z,34.20
2022-10-15T21:14:19.493Z,34.20
2022-10-15T21:17:21.515Z,34.10
2022-10-15T21:20:23.823Z,34.20
2022-10-15T21:23:25.837Z,34.10
2022-10-15T21:26:28.119Z,34.10
2022-10-15T21:29:30.447Z,34.10
2022-10-15T21:32:32.784Z,34.00
2022-10-15T21:35:34.895Z,34.00
2022-10-15T21:38:37.113Z,33.90
2022-10-15T21:41:40.057Z,33.90
2022-10-15T21:44:42.921Z,34.00
2022-10-15T21:47:44.990Z,34.00
2022-10-15T21:50:47.967Z,34.00
2022-10-15T21:53:50.338Z,34.00
2022-10-15T21:56:52.171Z,33.90
2022-10-15T21:59:54.453Z,33.90
2022-10-15T22:02:56.434Z,33.80
2022-10-15T22:06:01.043Z,33.80
2022-10-15T22:09:04.701Z,33.60
2022-10-15T22:12:07.297Z,33.60
2022-10-15T22:15:09.580Z,33.50
2022-10-15T22:18:11.944Z,33.60
2022-10-15T22:21:19.496Z,33.60
2022-10-15T22:24:21.667Z,33.70
2022-10-15T22:27:25.818Z,33.80
2022-10-15T22:30:27.887Z,33.80
2022-10-15T22:33:29.715Z,33.80
2022-10-15T22:36:31.914Z,33.70
2022-10-15T22:39:35.211Z,33.80
2022-10-15T22:42:38.203Z,33.70
2022-10-15T22:45:40.034Z,33.70
2022-10-15T22:48:42.999Z,33.90
2022-10-15T22:51:45.323Z,34.10
2022-10-15T22:54:47.377Z,34.10
2022-10-15T22:57:49.952Z,34.20
2022-10-15T23:00:52.878Z,34.30
2022-10-15T23:03:57.764Z,34.40
2022-10-15T23:06:59.826Z,34.50
2022-10-15T23:10:01.663Z,34.50
2022-10-15T23:13:03.943Z,34.40
2022-10-15T23:16:16.250Z,34.40
2022-10-15T23:19:23.294Z,34.30
2022-10-15T23:22:25.576Z,34.30
2022-10-15T23:25:27.854Z,34.20
2022-10-15T23:28:30.032Z,34.10
2022-10-15T23:31:35.044Z,34.10
2022-10-15T23:34:37.050Z,34.10
2022-10-15T23:37:42.370Z,34.10
2022-10-15T23:40:44.312Z,34.20
2022-10-15T23:43:46.715Z,34.20
2022-10-15T23:46:48.662Z,34.10
2022-10-15T23:49:50.932Z,34.10
2022-10-15T23:52:52.879Z,33.90
2022-10-15T23:55:55.001Z,34.00
2022-10-15T23:58:59.340Z,34.10
